sensor_id;sensor_type;location;lat;lon;timestamp;temperature;humidity
75387;DHT22;63966;47.914;22.266;2023-06-10T00:00:43;16.88;96.31
75387;DHT22;63966;47.914;22.266;2023-06-10T00:03:47;16.83;96.39
75387;DHT22;63966;47.914;22.266;2023-06-10T00:06:51;16.91;96.22
75387;DHT22;63966;47.914;22.266;2023-06-10T00:09:55;16.84;96.30
75387;DHT22;63966;47.914;22.266;2023-06-10T00:12:58;16.93;96.28
75387;DHT22;63966;47.914;22.266;2023-06-10T00:16:02;16.97;95.91
75387;DHT22;63966;47.914;22.266;2023-06-10T00:19:07;16.90;95.96
75387;DHT22;63966;47.914;22.266;2023-06-10T00:22:11;16.90;96.11
75387;DHT22;63966;47.914;22.266;2023-06-10T00:25:15;16.90;96.22
75387;DHT22;63966;47.914;22.266;2023-06-10T00:28:18;16.93;96.02
75387;DHT22;63966;47.914;22.266;2023-06-10T00:31:22;16.86;95.98
75387;DHT22;63966;47.914;22.266;2023-06-10T00:34:25;16.80;96.08
75387;DHT22;63966;47.914;22.266;2023-06-10T00:37:29;16.79;96.09
75387;DHT22;63966;47.914;22.266;2023-06-10T00:40:39;16.77;96.23
75387;DHT22;63966;47.914;22.266;2023-06-10T00:43:43;16.77;96.27
75387;DHT22;63966;47.914;22.266;2023-06-10T00:46:47;16.73;96.23
75387;DHT22;63966;47.914;22.266;2023-06-10T00:49:54;16.70;96.26
75387;DHT22;63966;47.914;22.266;2023-06-10T00:53:00;16.73;96.29
75387;DHT22;63966;47.914;22.266;2023-06-10T00:56:04;16.72;96.30
75387;DHT22;63966;47.914;22.266;2023-06-10T00:59:07;16.70;96.35
75387;DHT22;63966;47.914;22.266;2023-06-10T01:02:11;16.70;96.39
75387;DHT22;63966;47.914;22.266;2023-06-10T01:05:14;16.70;96.49
75387;DHT22;63966;47.914;22.266;2023-06-10T01:08:33;16.70;96.38
75387;DHT22;63966;47.914;22.266;2023-06-10T01:11:47;16.66;96.29
75387;DHT22;63966;47.914;22.266;2023-06-10T01:14:55;16.62;96.37
75387;DHT22;63966;47.914;22.266;2023-06-10T01:18:06;16.59;96.51
75387;DHT22;63966;47.914;22.266;2023-06-10T01:21:20;16.65;96.62
75387;DHT22;63966;47.914;22.266;2023-06-10T01:24:24;16.72;96.49
75387;DHT22;63966;47.914;22.266;2023-06-10T01:27:32;16.73;96.36
75387;DHT22;63966;47.914;22.266;2023-06-10T01:34:01;16.84;96.15
75387;DHT22;63966;47.914;22.266;2023-06-10T01:37:06;16.86;96.07
75387;DHT22;63966;47.914;22.266;2023-06-10T01:40:14;16.97;95.93
75387;DHT22;63966;47.914;22.266;2023-06-10T01:43:19;17.06;95.41
75387;DHT22;63966;47.914;22.266;2023-06-10T01:46:23;17.04;95.50
75387;DHT22;63966;47.914;22.266;2023-06-10T01:49:26;17.11;95.69
75387;DHT22;63966;47.914;22.266;2023-06-10T01:52:31;17.10;95.64
75387;DHT22;63966;47.914;22.266;2023-06-10T01:55:36;17.08;95.75
75387;DHT22;63966;47.914;22.266;2023-06-10T01:58:40;17.10;96.00
75387;DHT22;63966;47.914;22.266;2023-06-10T02:01:44;17.11;96.18
75387;DHT22;63966;47.914;22.266;2023-06-10T02:04:47;17.17;96.26
75387;DHT22;63966;47.914;22.266;2023-06-10T02:07:51;17.21;96.30
75387;DHT22;63966;47.914;22.266;2023-06-10T02:10:54;17.21;96.27
75387;DHT22;63966;47.914;22.266;2023-06-10T02:13:57;17.18;96.21
75387;DHT22;63966;47.914;22.266;2023-06-10T02:17:01;17.15;96.35
75387;DHT22;63966;47.914;22.266;2023-06-10T02:20:05;17.17;96.44
75387;DHT22;63966;47.914;22.266;2023-06-10T02:23:10;17.15;96.52
75387;DHT22;63966;47.914;22.266;2023-06-10T02:26:13;17.20;96.56
75387;DHT22;63966;47.914;22.266;2023-06-10T02:29:17;17.17;96.51
75387;DHT22;63966;47.914;22.266;2023-06-10T02:32:20;17.14;96.55
75387;DHT22;63966;47.914;22.266;2023-06-10T02:35:24;17.08;96.59
75387;DHT22;63966;47.914;22.266;2023-06-10T02:38:28;17.06;96.60
75387;DHT22;63966;47.914;22.266;2023-06-10T02:41:34;17.04;96.59
75387;DHT22;63966;47.914;22.266;2023-06-10T02:44:38;16.99;96.57
75387;DHT22;63966;47.914;22.266;2023-06-10T02:47:46;16.94;96.54
75387;DHT22;63966;47.914;22.266;2023-06-10T02:50:50;16.90;96.47
75387;DHT22;63966;47.914;22.266;2023-06-10T02:54:00;16.88;96.43
75387;DHT22;63966;47.914;22.266;2023-06-10T02:57:03;16.83;96.34
75387;DHT22;63966;47.914;22.266;2023-06-10T03:00:07;16.86;96.31
75387;DHT22;63966;47.914;22.266;2023-06-10T03:03:16;16.91;96.13
75387;DHT22;63966;47.914;22.266;2023-06-10T03:06:29;16.88;95.97
75387;DHT22;63966;47.914;22.266;2023-06-10T03:09:43;16.93;95.87
75387;DHT22;63966;47.914;22.266;2023-06-10T03:12:49;17.03;95.58
75387;DHT22;63966;47.914;22.266;2023-06-10T03:15:53;16.96;95.23
75387;DHT22;63966;47.914;22.266;2023-06-10T03:18:58;16.93;95.27
75387;DHT22;63966;47.914;22.266;2023-06-10T03:22:10;17.06;95.14
75387;DHT22;63966;47.914;22.266;2023-06-10T03:25:19;17.10;94.89
75387;DHT22;63966;47.914;22.266;2023-06-10T03:28:27;17.32;94.26
75387;DHT22;63966;47.914;22.266;2023-06-10T03:31:31;17.32;93.94
75387;DHT22;63966;47.914;22.266;2023-06-10T03:34:36;17.35;93.87
75387;DHT22;63966;47.914;22.266;2023-06-10T03:37:39;17.48;93.56
75387;DHT22;63966;47.914;22.266;2023-06-10T03:40:43;17.80;92.61
75387;DHT22;63966;47.914;22.266;2023-06-10T03:43:47;17.97;92.02
75387;DHT22;63966;47.914;22.266;2023-06-10T03:46:50;17.83;92.28
75387;DHT22;63966;47.914;22.266;2023-06-10T03:49:55;17.80;92.48
75387;DHT22;63966;47.914;22.266;2023-06-10T03:53:00;17.85;92.76
75387;DHT22;63966;47.914;22.266;2023-06-10T03:56:03;18.01;92.37
75387;DHT22;63966;47.914;22.266;2023-06-10T03:59:07;18.72;90.45
75387;DHT22;63966;47.914;22.266;2023-06-10T04:02:11;18.92;89.10
75387;DHT22;63966;47.914;22.266;2023-06-10T04:05:15;18.99;88.75
75387;DHT22;63966;47.914;22.266;2023-06-10T04:08:19;18.91;88.98
75387;DHT22;63966;47.914;22.266;2023-06-10T04:11:26;18.86;89.27
75387;DHT22;63966;47.914;22.266;2023-06-10T04:14:32;18.94;89.54
75387;DHT22;63966;47.914;22.266;2023-06-10T04:17:35;18.79;89.79
75387;DHT22;63966;47.914;22.266;2023-06-10T04:20:39;18.75;89.84
75387;DHT22;63966;47.914;22.266;2023-06-10T04:23:43;18.78;89.78
75387;DHT22;63966;47.914;22.266;2023-06-10T04:26:47;18.85;89.91
75387;DHT22;63966;47.914;22.266;2023-06-10T04:29:50;18.84;89.58
75387;DHT22;63966;47.914;22.266;2023-06-10T04:32:54;18.86;89.86
75387;DHT22;63966;47.914;22.266;2023-06-10T04:35:57;18.92;89.85
75387;DHT22;63966;47.914;22.266;2023-06-10T04:39:04;18.96;89.59
75387;DHT22;63966;47.914;22.266;2023-06-10T04:42:10;18.84;89.96
75387;DHT22;63966;47.914;22.266;2023-06-10T04:45:15;18.96;89.89
75387;DHT22;63966;47.914;22.266;2023-06-10T04:48:19;19.10;89.39
75387;DHT22;63966;47.914;22.266;2023-06-10T04:51:23;19.03;89.29
75387;DHT22;63966;47.914;22.266;2023-06-10T04:54:26;19.09;89.23
75387;DHT22;63966;47.914;22.266;2023-06-10T04:57:29;19.12;89.48
75387;DHT22;63966;47.914;22.266;2023-06-10T05:00:33;19.16;89.20
75387;DHT22;63966;47.914;22.266;2023-06-10T05:03:36;19.17;88.88
75387;DHT22;63966;47.914;22.266;2023-06-10T05:06:40;19.06;89.26
75387;DHT22;63966;47.914;22.266;2023-06-10T05:09:43;18.96;90.05
75387;DHT22;63966;47.914;22.266;2023-06-10T05:12:46;18.94;90.23
75387;DHT22;63966;47.914;22.266;2023-06-10T05:15:50;19.00;89.84
75387;DHT22;63966;47.914;22.266;2023-06-10T05:18:53;19.05;90.98
75387;DHT22;63966;47.914;22.266;2023-06-10T05:21:56;19.23;89.06
75387;DHT22;63966;47.914;22.266;2023-06-10T05:25:00;19.19;89.70
75387;DHT22;63966;47.914;22.266;2023-06-10T05:28:03;19.27;89.88
75387;DHT22;63966;47.914;22.266;2023-06-10T05:31:07;19.34;89.46
75387;DHT22;63966;47.914;22.266;2023-06-10T05:34:10;19.41;89.31
75387;DHT22;63966;47.914;22.266;2023-06-10T05:37:14;19.31;89.45
75387;DHT22;63966;47.914;22.266;2023-06-10T05:40:17;19.30;89.25
75387;DHT22;63966;47.914;22.266;2023-06-10T05:43:21;19.22;89.79
75387;DHT22;63966;47.914;22.266;2023-06-10T05:46:24;19.30;89.19
75387;DHT22;63966;47.914;22.266;2023-06-10T05:49:28;19.43;88.61
75387;DHT22;63966;47.914;22.266;2023-06-10T05:52:31;19.57;88.53
75387;DHT22;63966;47.914;22.266;2023-06-10T05:55:35;19.67;88.74
75387;DHT22;63966;47.914;22.266;2023-06-10T05:58:39;19.85;88.36
75387;DHT22;63966;47.914;22.266;2023-06-10T06:01:42;20.08;87.15
75387;DHT22;63966;47.914;22.266;2023-06-10T06:04:46;20.13;85.56
75387;DHT22;63966;47.914;22.266;2023-06-10T06:07:49;20.18;85.47
75387;DHT22;63966;47.914;22.266;2023-06-10T06:10:53;20.34;85.33
75387;DHT22;63966;47.914;22.266;2023-06-10T06:13:56;20.51;84.09
75387;DHT22;63966;47.914;22.266;2023-06-10T06:17:00;20.51;85.11
75387;DHT22;63966;47.914;22.266;2023-06-10T06:20:05;20.78;83.66
75387;DHT22;63966;47.914;22.266;2023-06-10T06:23:08;21.15;82.81
75387;DHT22;63966;47.914;22.266;2023-06-10T06:26:13;21.46;82.56
75387;DHT22;63966;47.914;22.266;2023-06-10T06:29:17;21.77;80.77
75387;DHT22;63966;47.914;22.266;2023-06-10T06:32:21;22.34;79.80
75387;DHT22;63966;47.914;22.266;2023-06-10T06:35:25;22.66;77.16
75387;DHT22;63966;47.914;22.266;2023-06-10T06:38:29;22.59;78.52
75387;DHT22;63966;47.914;22.266;2023-06-10T06:41:33;22.34;79.29
75387;DHT22;63966;47.914;22.266;2023-06-10T06:44:36;22.38;78.78
75387;DHT22;63966;47.914;22.266;2023-06-10T06:47:39;22.42;79.42
75387;DHT22;63966;47.914;22.266;2023-06-10T06:50:43;22.56;77.64
75387;DHT22;63966;47.914;22.266;2023-06-10T06:53:47;22.86;76.66
75387;DHT22;63966;47.914;22.266;2023-06-10T06:56:50;22.76;76.58
75387;DHT22;63966;47.914;22.266;2023-06-10T06:59:54;22.75;77.18
75387;DHT22;63966;47.914;22.266;2023-06-10T07:02:58;23.17;76.72
75387;DHT22;63966;47.914;22.266;2023-06-10T07:06:02;23.37;75.59
75387;DHT22;63966;47.914;22.266;2023-06-10T07:09:06;23.31;73.44
75387;DHT22;63966;47.914;22.266;2023-06-10T07:12:10;23.20;74.57
75387;DHT22;63966;47.914;22.266;2023-06-10T07:15:14;23.24;71.23
75387;DHT22;63966;47.914;22.266;2023-06-10T07:18:17;23.51;72.68
75387;DHT22;63966;47.914;22.266;2023-06-10T07:21:21;23.59;73.82
75387;DHT22;63966;47.914;22.266;2023-06-10T07:24:26;23.65;72.02
75387;DHT22;63966;47.914;22.266;2023-06-10T07:27:29;23.66;75.23
75387;DHT22;63966;47.914;22.266;2023-06-10T07:30:33;23.69;74.34
75387;DHT22;63966;47.914;22.266;2023-06-10T07:33:36;23.71;73.44
75387;DHT22;63966;47.914;22.266;2023-06-10T07:36:41;23.90;72.53
75387;DHT22;63966;47.914;22.266;2023-06-10T07:39:44;24.56;71.15
75387;DHT22;63966;47.914;22.266;2023-06-10T07:42:48;25.45;65.89
75387;DHT22;63966;47.914;22.266;2023-06-10T07:45:51;25.94;64.72
75387;DHT22;63966;47.914;22.266;2023-06-10T07:48:55;26.48;61.69
75387;DHT22;63966;47.914;22.266;2023-06-10T07:51:58;27.08;61.41
75387;DHT22;63966;47.914;22.266;2023-06-10T07:55:03;27.18;60.65
75387;DHT22;63966;47.914;22.266;2023-06-10T07:58:07;27.61;59.93
75387;DHT22;63966;47.914;22.266;2023-06-10T08:01:10;27.90;58.85
75387;DHT22;63966;47.914;22.266;2023-06-10T08:04:14;27.89;57.50
75387;DHT22;63966;47.914;22.266;2023-06-10T08:07:17;27.23;58.00
75387;DHT22;63966;47.914;22.266;2023-06-10T08:10:22;27.33;59.01
75387;DHT22;63966;47.914;22.266;2023-06-10T08:13:25;28.09;57.60
75387;DHT22;63966;47.914;22.266;2023-06-10T08:16:29;26.87;58.95
75387;DHT22;63966;47.914;22.266;2023-06-10T08:19:32;27.35;59.26
75387;DHT22;63966;47.914;22.266;2023-06-10T08:22:36;28.03;58.53
75387;DHT22;63966;47.914;22.266;2023-06-10T08:25:39;29.98;54.26
75387;DHT22;63966;47.914;22.266;2023-06-10T08:28:43;31.34;50.16
75387;DHT22;63966;47.914;22.266;2023-06-10T08:31:46;29.85;51.06
75387;DHT22;63966;47.914;22.266;2023-06-10T08:34:49;29.82;50.29
75387;DHT22;63966;47.914;22.266;2023-06-10T08:37:53;28.00;55.09
75387;DHT22;63966;47.914;22.266;2023-06-10T08:40:59;27.06;58.59
75387;DHT22;63966;47.914;22.266;2023-06-10T08:44:32;26.86;60.86
75387;DHT22;63966;47.914;22.266;2023-06-10T08:47:38;26.48;59.34
75387;DHT22;63966;47.914;22.266;2023-06-10T08:50:42;25.75;59.11
75387;DHT22;63966;47.914;22.266;2023-06-10T08:53:57;25.75;60.84
75387;DHT22;63966;47.914;22.266;2023-06-10T08:57:07;26.00;63.82
75387;DHT22;63966;47.914;22.266;2023-06-10T09:00:11;25.84;60.32
75387;DHT22;63966;47.914;22.266;2023-06-10T09:03:15;25.94;60.14
75387;DHT22;63966;47.914;22.266;2023-06-10T09:06:19;26.02;61.81
75387;DHT22;63966;47.914;22.266;2023-06-10T09:09:26;25.66;60.34
75387;DHT22;63966;47.914;22.266;2023-06-10T09:12:31;25.64;60.35
75387;DHT22;63966;47.914;22.266;2023-06-10T09:15:34;25.97;61.80
75387;DHT22;63966;47.914;22.266;2023-06-10T09:18:38;25.78;60.95
75387;DHT22;63966;47.914;22.266;2023-06-10T09:21:41;25.81;63.02
75387;DHT22;63966;47.914;22.266;2023-06-10T09:24:47;26.32;61.91
75387;DHT22;63966;47.914;22.266;2023-06-10T09:27:52;26.26;59.00
75387;DHT22;63966;47.914;22.266;2023-06-10T09:31:06;26.49;57.81
75387;DHT22;63966;47.914;22.266;2023-06-10T09:34:11;25.95;59.23
75387;DHT22;63966;47.914;22.266;2023-06-10T09:37:21;25.57;61.53
75387;DHT22;63966;47.914;22.266;2023-06-10T09:40:25;25.83;62.02
75387;DHT22;63966;47.914;22.266;2023-06-10T09:43:45;26.08;60.38
75387;DHT22;63966;47.914;22.266;2023-06-10T09:46:50;26.26;57.58
75387;DHT22;63966;47.914;22.266;2023-06-10T09:49:54;26.55;58.21
75387;DHT22;63966;47.914;22.266;2023-06-10T09:52:57;26.68;58.89
75387;DHT22;63966;47.914;22.266;2023-06-10T09:56:01;26.63;59.37
75387;DHT22;63966;47.914;22.266;2023-06-10T09:59:04;26.52;58.10
75387;DHT22;63966;47.914;22.266;2023-06-10T10:02:16;26.45;57.08
75387;DHT22;63966;47.914;22.266;2023-06-10T10:05:21;26.80;58.77
75387;DHT22;63966;47.914;22.266;2023-06-10T10:08:26;27.35;59.81
75387;DHT22;63966;47.914;22.266;2023-06-10T10:11:29;27.12;56.80
75387;DHT22;63966;47.914;22.266;2023-06-10T10:14:35;26.63;57.09
75387;DHT22;63966;47.914;22.266;2023-06-10T10:17:54;26.83;56.84
75387;DHT22;63966;47.914;22.266;2023-06-10T10:21:03;26.79;56.21
75387;DHT22;63966;47.914;22.266;2023-06-10T10:24:23;26.69;57.55
75387;DHT22;63966;47.914;22.266;2023-06-10T10:27:33;26.32;58.54
75387;DHT22;63966;47.914;22.266;2023-06-10T10:30:47;26.49;57.75
75387;DHT22;63966;47.914;22.266;2023-06-10T10:33:59;26.39;56.09
75387;DHT22;63966;47.914;22.266;2023-06-10T10:37:03;26.36;55.73
75387;DHT22;63966;47.914;22.266;2023-06-10T10:40:08;26.68;55.90
75387;DHT22;63966;47.914;22.266;2023-06-10T10:43:12;26.21;57.59
75387;DHT22;63966;47.914;22.266;2023-06-10T10:46:17;26.49;55.67
75387;DHT22;63966;47.914;22.266;2023-06-10T10:49:21;26.69;57.02
75387;DHT22;63966;47.914;22.266;2023-06-10T10:52:26;26.87;55.45
75387;DHT22;63966;47.914;22.266;2023-06-10T10:55:30;26.90;56.29
75387;DHT22;63966;47.914;22.266;2023-06-10T10:58:34;26.26;55.35
75387;DHT22;63966;47.914;22.266;2023-06-10T11:01:42;26.20;57.28
75387;DHT22;63966;47.914;22.266;2023-06-10T11:04:49;26.55;56.37
75387;DHT22;63966;47.914;22.266;2023-06-10T11:07:56;26.93;55.17
75387;DHT22;63966;47.914;22.266;2023-06-10T11:10:59;27.03;56.66
75387;DHT22;63966;47.914;22.266;2023-06-10T11:17:19;26.96;55.84
75387;DHT22;63966;47.914;22.266;2023-06-10T11:20:46;26.50;58.36
75387;DHT22;63966;47.914;22.266;2023-06-10T11:23:57;26.56;56.56
75387;DHT22;63966;47.914;22.266;2023-06-10T11:27:23;26.86;58.88
75387;DHT22;63966;47.914;22.266;2023-06-10T11:30:35;26.75;56.00
75387;DHT22;63966;47.914;22.266;2023-06-10T11:33:39;26.63;56.44
75387;DHT22;63966;47.914;22.266;2023-06-10T11:36:43;26.82;59.87
75387;DHT22;63966;47.914;22.266;2023-06-10T11:39:53;26.22;57.54
75387;DHT22;63966;47.914;22.266;2023-06-10T11:42:57;26.08;57.52
75387;DHT22;63966;47.914;22.266;2023-06-10T11:46:01;26.25;58.25
75387;DHT22;63966;47.914;22.266;2023-06-10T11:49:05;26.63;57.36
75387;DHT22;63966;47.914;22.266;2023-06-10T11:52:09;26.33;55.32
75387;DHT22;63966;47.914;22.266;2023-06-10T11:55:13;26.26;56.27
75387;DHT22;63966;47.914;22.266;2023-06-10T11:58:19;26.42;56.81
75387;DHT22;63966;47.914;22.266;2023-06-10T12:01:23;26.70;54.35
75387;DHT22;63966;47.914;22.266;2023-06-10T12:04:31;27.11;55.57
75387;DHT22;63966;47.914;22.266;2023-06-10T12:07:35;27.17;52.56
75387;DHT22;63966;47.914;22.266;2023-06-10T12:10:42;27.46;52.96
75387;DHT22;63966;47.914;22.266;2023-06-10T12:13:47;27.78;54.38
75387;DHT22;63966;47.914;22.266;2023-06-10T12:16:53;27.83;50.57
75387;DHT22;63966;47.914;22.266;2023-06-10T12:20:00;27.46;50.13
75387;DHT22;63966;47.914;22.266;2023-06-10T12:23:10;27.65;50.51
75387;DHT22;63966;47.914;22.266;2023-06-10T12:26:14;27.79;50.11
75387;DHT22;63966;47.914;22.266;2023-06-10T12:32:39;27.55;54.24
75387;DHT22;63966;47.914;22.266;2023-06-10T12:35:51;27.06;53.69
75387;DHT22;63966;47.914;22.266;2023-06-10T12:39:03;27.06;56.07
75387;DHT22;63966;47.914;22.266;2023-06-10T12:42:08;26.69;55.03
75387;DHT22;63966;47.914;22.266;2023-06-10T12:45:12;26.36;55.45
75387;DHT22;63966;47.914;22.266;2023-06-10T12:48:24;26.31;58.40
75387;DHT22;63966;47.914;22.266;2023-06-10T12:51:31;26.05;56.92
75387;DHT22;63966;47.914;22.266;2023-06-10T12:54:35;25.87;55.67
75387;DHT22;63966;47.914;22.266;2023-06-10T12:57:48;25.94;55.50
75387;DHT22;63966;47.914;22.266;2023-06-10T13:00:52;25.93;55.44
75387;DHT22;63966;47.914;22.266;2023-06-10T13:03:56;26.01;54.91
75387;DHT22;63966;47.914;22.266;2023-06-10T13:07:00;26.21;53.85
75387;DHT22;63966;47.914;22.266;2023-06-10T13:10:04;26.62;53.23
75387;DHT22;63966;47.914;22.266;2023-06-10T13:13:08;26.89;53.55
75387;DHT22;63966;47.914;22.266;2023-06-10T13:16:13;27.03;52.11
75387;DHT22;63966;47.914;22.266;2023-06-10T13:19:16;26.80;54.01
75387;DHT22;63966;47.914;22.266;2023-06-10T13:22:20;27.00;52.47
75387;DHT22;63966;47.914;22.266;2023-06-10T13:25:23;26.86;51.25
75387;DHT22;63966;47.914;22.266;2023-06-10T13:28:27;26.93;52.72
75387;DHT22;63966;47.914;22.266;2023-06-10T13:31:30;26.96;55.06
75387;DHT22;63966;47.914;22.266;2023-06-10T13:34:37;26.82;58.07
75387;DHT22;63966;47.914;22.266;2023-06-10T13:37:40;26.53;50.47
75387;DHT22;63966;47.914;22.266;2023-06-10T13:40:44;26.60;53.00
75387;DHT22;63966;47.914;22.266;2023-06-10T13:43:47;26.69;52.57
75387;DHT22;63966;47.914;22.266;2023-06-10T13:46:51;27.06;53.97
75387;DHT22;63966;47.914;22.266;2023-06-10T13:49:54;27.15;53.08
75387;DHT22;63966;47.914;22.266;2023-06-10T13:52:58;27.28;51.55
75387;DHT22;63966;47.914;22.266;2023-06-10T13:56:05;27.11;57.48
75387;DHT22;63966;47.914;22.266;2023-06-10T13:59:09;27.18;56.02
75387;DHT22;63966;47.914;22.266;2023-06-10T14:02:12;26.94;52.96
75387;DHT22;63966;47.914;22.266;2023-06-10T14:05:16;27.03;53.80
75387;DHT22;63966;47.914;22.266;2023-06-10T14:08:19;26.89;52.74
75387;DHT22;63966;47.914;22.266;2023-06-10T14:11:23;26.75;51.07
75387;DHT22;63966;47.914;22.266;2023-06-10T14:14:27;26.84;47.20
75387;DHT22;63966;47.914;22.266;2023-06-10T14:17:30;26.72;51.49
75387;DHT22;63966;47.914;22.266;2023-06-10T14:20:34;26.63;50.58
75387;DHT22;63966;47.914;22.266;2023-06-10T14:23:37;26.57;52.37
75387;DHT22;63966;47.914;22.266;2023-06-10T14:26:41;26.45;52.76
75387;DHT22;63966;47.914;22.266;2023-06-10T14:29:44;26.38;53.98
75387;DHT22;63966;47.914;22.266;2023-06-10T14:32:48;26.45;54.08
75387;DHT22;63966;47.914;22.266;2023-06-10T14:35:51;26.63;54.23
75387;DHT22;63966;47.914;22.266;2023-06-10T14:38:55;26.46;54.68
75387;DHT22;63966;47.914;22.266;2023-06-10T14:42:00;26.70;53.79
75387;DHT22;63966;47.914;22.266;2023-06-10T14:45:04;26.63;52.66
75387;DHT22;63966;47.914;22.266;2023-06-10T14:48:09;26.53;52.78
75387;DHT22;63966;47.914;22.266;2023-06-10T14:51:12;26.43;52.96
75387;DHT22;63966;47.914;22.266;2023-06-10T14:54:16;26.48;54.18
75387;DHT22;63966;47.914;22.266;2023-06-10T14:57:19;26.53;53.13
75387;DHT22;63966;47.914;22.266;2023-06-10T15:00:23;26.53;56.48
75387;DHT22;63966;47.914;22.266;2023-06-10T15:03:27;25.84;60.99
75387;DHT22;63966;47.914;22.266;2023-06-10T15:06:30;25.05;64.70
75387;DHT22;63966;47.914;22.266;2023-06-10T15:09:34;23.95;67.75
75387;DHT22;63966;47.914;22.266;2023-06-10T15:12:37;23.27;70.53
75387;DHT22;63966;47.914;22.266;2023-06-10T15:15:40;23.16;67.91
75387;DHT22;63966;47.914;22.266;2023-06-10T15:18:44;23.21;73.46
75387;DHT22;63966;47.914;22.266;2023-06-10T15:21:47;22.31;72.45
75387;DHT22;63966;47.914;22.266;2023-06-10T15:24:51;19.82;84.85
75387;DHT22;63966;47.914;22.266;2023-06-10T15:27:54;19.06;87.82
75387;DHT22;63966;47.914;22.266;2023-06-10T15:30:58;18.78;89.49
75387;DHT22;63966;47.914;22.266;2023-06-10T15:34:01;18.71;91.95
75387;DHT22;63966;47.914;22.266;2023-06-10T15:37:05;18.54;91.56
75387;DHT22;63966;47.914;22.266;2023-06-10T15:40:09;18.48;92.16
75387;DHT22;63966;47.914;22.266;2023-06-10T15:43:12;18.26;92.81
75387;DHT22;63966;47.914;22.266;2023-06-10T15:46:16;18.04;93.20
75387;DHT22;63966;47.914;22.266;2023-06-10T15:54:21;17.59;95.25
75387;DHT22;63966;47.914;22.266;2023-06-10T15:57:24;17.61;95.44
75387;DHT22;63966;47.914;22.266;2023-06-10T16:00:29;17.68;95.18
75387;DHT22;63966;47.914;22.266;2023-06-10T16:03:33;17.69;95.14
75387;DHT22;63966;47.914;22.266;2023-06-10T16:06:36;17.69;95.01
75387;DHT22;63966;47.914;22.266;2023-06-10T16:09:40;17.71;94.64
75387;DHT22;63966;47.914;22.266;2023-06-10T16:12:43;17.73;94.82
75387;DHT22;63966;47.914;22.266;2023-06-10T16:15:46;17.75;94.94
75387;DHT22;63966;47.914;22.266;2023-06-10T16:18:50;17.79;94.73
75387;DHT22;63966;47.914;22.266;2023-06-10T16:21:53;17.59;93.79
75387;DHT22;63966;47.914;22.266;2023-06-10T16:24:56;17.58;93.82
75387;DHT22;63966;47.914;22.266;2023-06-10T16:28:00;17.52;93.91
75387;DHT22;63966;47.914;22.266;2023-06-10T16:31:05;17.62;92.99
75387;DHT22;63966;47.914;22.266;2023-06-10T16:34:08;17.62;92.76
75387;DHT22;63966;47.914;22.266;2023-06-10T16:37:12;17.62;92.55
75387;DHT22;63966;47.914;22.266;2023-06-10T16:40:16;17.75;93.06
75387;DHT22;63966;47.914;22.266;2023-06-10T16:43:19;17.82;92.55
75387;DHT22;63966;47.914;22.266;2023-06-10T16:46:23;17.90;93.18
75387;DHT22;63966;47.914;22.266;2023-06-10T16:49:28;18.00;93.85
75387;DHT22;63966;47.914;22.266;2023-06-10T16:52:31;18.03;94.29
75387;DHT22;63966;47.914;22.266;2023-06-10T16:55:35;18.00;93.69
75387;DHT22;63966;47.914;22.266;2023-06-10T16:58:41;18.01;93.00
75387;DHT22;63966;47.914;22.266;2023-06-10T17:01:44;18.11;93.66
75387;DHT22;63966;47.914;22.266;2023-06-10T17:04:48;18.18;94.06
75387;DHT22;63966;47.914;22.266;2023-06-10T17:07:51;18.24;94.45
75387;DHT22;63966;47.914;22.266;2023-06-10T17:10:55;18.30;94.67
75387;DHT22;63966;47.914;22.266;2023-06-10T17:13:58;18.37;94.68
75387;DHT22;63966;47.914;22.266;2023-06-10T17:17:02;18.43;94.75
75387;DHT22;63966;47.914;22.266;2023-06-10T17:20:06;18.45;94.79
75387;DHT22;63966;47.914;22.266;2023-06-10T17:23:11;18.45;94.68
75387;DHT22;63966;47.914;22.266;2023-06-10T17:26:14;18.49;94.70
75387;DHT22;63966;47.914;22.266;2023-06-10T17:29:18;18.48;94.81
75387;DHT22;63966;47.914;22.266;2023-06-10T17:32:21;18.58;93.69
75387;DHT22;63966;47.914;22.266;2023-06-10T17:35:25;18.45;92.90
75387;DHT22;63966;47.914;22.266;2023-06-10T17:38:28;18.44;93.96
75387;DHT22;63966;47.914;22.266;2023-06-10T17:41:32;18.47;93.38
75387;DHT22;63966;47.914;22.266;2023-06-10T17:44:35;18.47;93.48
75387;DHT22;63966;47.914;22.266;2023-06-10T17:47:38;18.48;93.04
75387;DHT22;63966;47.914;22.266;2023-06-10T17:50:42;18.45;93.03
75387;DHT22;63966;47.914;22.266;2023-06-10T17:53:45;18.48;93.57
75387;DHT22;63966;47.914;22.266;2023-06-10T17:56:49;18.52;93.51
75387;DHT22;63966;47.914;22.266;2023-06-10T17:59:53;18.57;94.28
75387;DHT22;63966;47.914;22.266;2023-06-10T18:02:57;18.54;94.77
75387;DHT22;63966;47.914;22.266;2023-06-10T18:06:00;18.54;94.98
75387;DHT22;63966;47.914;22.266;2023-06-10T18:09:04;18.52;94.80
75387;DHT22;63966;47.914;22.266;2023-06-10T18:12:08;18.40;93.88
75387;DHT22;63966;47.914;22.266;2023-06-10T18:15:11;18.34;94.19
75387;DHT22;63966;47.914;22.266;2023-06-10T18:18:15;18.28;94.18
75387;DHT22;63966;47.914;22.266;2023-06-10T18:21:19;18.24;94.69
75387;DHT22;63966;47.914;22.266;2023-06-10T18:24:23;18.17;94.90
75387;DHT22;63966;47.914;22.266;2023-06-10T18:27:26;18.14;95.29
75387;DHT22;63966;47.914;22.266;2023-06-10T18:30:30;18.04;95.47
75387;DHT22;63966;47.914;22.266;2023-06-10T18:33:33;17.97;94.99
75387;DHT22;63966;47.914;22.266;2023-06-10T18:36:37;17.89;94.47
75387;DHT22;63966;47.914;22.266;2023-06-10T18:39:40;17.86;95.36
75387;DHT22;63966;47.914;22.266;2023-06-10T18:42:44;17.82;94.89
75387;DHT22;63966;47.914;22.266;2023-06-10T18:45:47;17.79;92.20
75387;DHT22;63966;47.914;22.266;2023-06-10T18:48:51;17.83;92.08
75387;DHT22;63966;47.914;22.266;2023-06-10T18:51:54;17.85;92.47
75387;DHT22;63966;47.914;22.266;2023-06-10T18:54:58;17.83;92.46
75387;DHT22;63966;47.914;22.266;2023-06-10T18:58:02;17.82;92.39
75387;DHT22;63966;47.914;22.266;2023-06-10T19:01:05;17.78;92.30
75387;DHT22;63966;47.914;22.266;2023-06-10T19:04:09;17.76;92.47
75387;DHT22;63966;47.914;22.266;2023-06-10T19:07:12;17.68;92.98
75387;DHT22;63966;47.914;22.266;2023-06-10T19:10:16;17.63;93.46
75387;DHT22;63966;47.914;22.266;2023-06-10T19:13:19;17.68;93.45
75387;DHT22;63966;47.914;22.266;2023-06-10T19:16:23;17.65;94.07
75387;DHT22;63966;47.914;22.266;2023-06-10T19:19:26;17.62;94.21
75387;DHT22;63966;47.914;22.266;2023-06-10T19:22:30;17.58;94.01